Time;durP1;ratioP1;P1;durP2;ratioP2;P2;SDS_P1;SDS_P2;PMS_P1;PMS_P2;Temp;Humidity;BMP_temperature;BMP_pressure;BME280_temperature;BME280_humidity;BME280_pressure;Samples;Min_cycle;Max_cycle;Signal;HPM_P1;HPM_P2
2023/05/07 00:16:27;;;;;;;8.30;5.83;;;;;;;;;;5040486;28;20489;-77
2023/05/07 00:19:09;;;;;;;5.80;5.30;;;;;;;;;;4960977;29;20489;-77
2023/05/07 00:21:38;;;;;;;6.93;6.33;;;;;;;;;;4961107;29;20493;-77
2023/05/07 00:24:07;;;;;;;6.97;6.27;;;;;;;;;;4958852;29;20513;-77
2023/05/07 00:26:47;;;;;;;6.67;6.13;;;;;;;;;;4959149;29;20450;-76
2023/05/07 00:34:52;;;;;;;7.17;6.50;;;;;;;;;;5010633;28;20530;-78
2023/05/07 00:37:36;;;;;;;6.30;5.70;;;;;;;;;;5023224;28;20452;-76
2023/05/07 00:40:10;;;;;;;6.57;6.07;;;;;;;;;;5020240;28;20430;-76
2023/05/07 00:42:37;;;;;;;7.00;6.43;;;;;;;;;;5019053;28;20451;-77
2023/05/07 00:45:10;;;;;;;7.40;6.70;;;;;;;;;;5020465;28;20466;-76
2023/05/07 00:47:46;;;;;;;8.07;5.97;;;;;;;;;;5021275;28;20443;-76
2023/05/07 00:50:26;;;;;;;6.80;6.20;;;;;;;;;;5019839;28;20474;-77
2023/05/07 00:52:58;;;;;;;7.07;6.40;;;;;;;;;;5018643;28;20447;-76
2023/05/07 00:55:28;;;;;;;7.20;6.50;;;;;;;;;;5018520;28;20451;-76
2023/05/07 00:57:59;;;;;;;7.03;6.43;;;;;;;;;;5019682;28;20486;-76
2023/05/07 01:00:30;;;;;;;7.03;6.53;;;;;;;;;;5019060;28;20596;-76
2023/05/07 01:02:59;;;;;;;7.37;6.20;;;;;;;;;;5019193;28;20443;-77
2023/05/07 01:05:40;;;;;;;11.60;6.60;;;;;;;;;;5019071;28;20428;-77
2023/05/07 01:08:11;;;;;;;7.00;6.40;;;;;;;;;;5017887;28;20479;-76
2023/05/07 01:10:42;;;;;;;7.40;6.70;;;;;;;;;;5018397;28;20490;-76
2023/05/07 01:13:20;;;;;;;7.47;6.77;;;;;;;;;;5017747;28;20457;-76
2023/05/07 01:15:57;;;;;;;7.00;6.43;;;;;;;;;;5018989;28;20885;-77
2023/05/07 01:18:33;;;;;;;7.73;6.80;;;;;;;;;;5019209;28;20489;-79
2023/05/07 01:24:15;;;;;;;7.07;6.47;;;;;;;;;;5016947;28;20455;-77
2023/05/07 01:29:30;;;;;;;6.53;5.83;;;;;;;;;;5014540;28;20462;-77
2023/05/07 01:32:02;;;;;;;7.17;6.50;;;;;;;;;;5017225;28;20439;-77
2023/05/07 01:34:37;;;;;;;6.37;5.77;;;;;;;;;;5016296;28;20868;-77
2023/05/07 01:37:05;;;;;;;6.50;6.00;;;;;;;;;;5015279;28;21098;-77
2023/05/07 01:39:34;;;;;;;7.00;6.30;;;;;;;;;;5014704;28;20487;-77
2023/05/07 01:42:16;;;;;;;7.70;5.83;;;;;;;;;;5015761;28;20445;-78
2023/05/07 01:44:47;;;;;;;7.70;7.00;;;;;;;;;;5019407;28;20490;-78
2023/05/07 01:47:21;;;;;;;7.53;6.43;;;;;;;;;;5019108;28;20458;-78
2023/05/07 01:49:49;;;;;;;6.10;5.70;;;;;;;;;;5016605;28;20468;-77
2023/05/07 01:52:20;;;;;;;6.27;5.77;;;;;;;;;;5016509;28;21071;-77
2023/05/07 01:54:50;;;;;;;6.33;5.73;;;;;;;;;;5019727;28;21004;-77
2023/05/07 01:57:23;;;;;;;6.23;5.60;;;;;;;;;;5019940;28;20821;-77
2023/05/07 01:59:59;;;;;;;5.70;5.20;;;;;;;;;;5019131;28;20483;-77
2023/05/07 02:02:33;;;;;;;5.90;5.40;;;;;;;;;;5019386;28;20958;-77
2023/05/07 02:05:02;;;;;;;6.60;6.00;;;;;;;;;;5019859;28;20432;-77
2023/05/07 02:07:29;;;;;;;6.13;5.63;;;;;;;;;;5019644;28;21063;-77
2023/05/07 02:09:59;;;;;;;7.60;5.63;;;;;;;;;;5020643;28;20467;-77
2023/05/07 02:12:30;;;;;;;6.27;5.77;;;;;;;;;;5020586;28;20483;-77
2023/05/07 02:14:58;;;;;;;6.10;5.60;;;;;;;;;;5021904;28;20457;-77
2023/05/07 02:17:31;;;;;;;5.80;5.23;;;;;;;;;;5023540;28;20477;-78
2023/05/07 02:20:03;;;;;;;7.30;6.53;;;;;;;;;;5023131;28;20968;-77
2023/05/07 02:22:43;;;;;;;6.77;6.27;;;;;;;;;;5020579;28;20463;-76
2023/05/07 02:27:56;;;;;;;6.27;5.83;;;;;;;;;;5017857;28;20467;-77
2023/05/07 02:30:30;;;;;;;6.20;5.60;;;;;;;;;;5020994;28;20443;-77
2023/05/07 02:33:01;;;;;;;5.60;5.20;;;;;;;;;;5025662;28;21013;-77
2023/05/07 02:35:38;;;;;;;6.53;5.57;;;;;;;;;;5025853;28;20478;-77
2023/05/07 02:38:07;;;;;;;5.70;5.30;;;;;;;;;;5025340;28;20451;-77
2023/05/07 02:40:38;;;;;;;6.13;5.70;;;;;;;;;;5024717;28;20458;-77
2023/05/07 02:43:17;;;;;;;5.77;5.23;;;;;;;;;;5028335;28;20431;-78
2023/05/07 02:45:47;;;;;;;5.07;4.77;;;;;;;;;;5027816;28;20506;-77
2023/05/07 02:48:17;;;;;;;6.90;6.30;;;;;;;;;;5023596;28;20515;-77
2023/05/07 02:50:45;;;;;;;6.67;6.07;;;;;;;;;;5019414;28;20452;-76
2023/05/07 02:53:16;;;;;;;5.83;5.37;;;;;;;;;;5019500;28;20466;-77
2023/05/07 02:55:53;;;;;;;5.70;5.30;;;;;;;;;;5017579;28;20964;-77
2023/05/07 02:58:26;;;;;;;9.00;6.77;;;;;;;;;;5017688;28;20827;-78
2023/05/07 03:00:57;;;;;;;6.30;5.70;;;;;;;;;;5017404;28;20454;-76
2023/05/07 03:03:25;;;;;;;6.07;5.57;;;;;;;;;;5015264;28;21024;-78
2023/05/07 03:05:58;;;;;;;6.20;5.70;;;;;;;;;;5015717;28;20485;-78
2023/05/07 03:08:28;;;;;;;6.50;5.90;;;;;;;;;;5018701;28;20534;-76
2023/05/07 03:11:00;;;;;;;6.83;6.20;;;;;;;;;;5026919;28;20439;-76
2023/05/07 03:13:34;;;;;;;6.40;5.80;;;;;;;;;;5035678;28;20491;-76
2023/05/07 03:16:05;;;;;;;6.37;5.77;;;;;;;;;;5037386;28;20455;-76
2023/05/07 03:18:37;;;;;;;6.90;5.87;;;;;;;;;;5040709;28;20467;-76
2023/05/07 03:21:05;;;;;;;7.10;6.10;;;;;;;;;;5040618;28;20447;-75
2023/05/07 03:23:37;;;;;;;6.00;5.53;;;;;;;;;;5040686;28;20453;-75
2023/05/07 03:26:09;;;;;;;7.10;6.60;;;;;;;;;;5040839;28;20451;-75
2023/05/07 03:28:41;;;;;;;6.70;6.00;;;;;;;;;;5040093;28;20451;-76
2023/05/07 03:31:22;;;;;;;6.80;6.20;;;;;;;;;;5040326;28;20455;-77
2023/05/07 03:33:59;;;;;;;7.70;5.97;;;;;;;;;;5040424;28;20505;-76
2023/05/07 03:36:31;;;;;;;6.63;6.03;;;;;;;;;;5039929;28;20447;-75
2023/05/07 03:39:05;;;;;;;6.10;5.70;;;;;;;;;;5039095;28;20494;-77
2023/05/07 03:41:35;;;;;;;7.30;6.60;;;;;;;;;;5034840;28;20462;-78
2023/05/07 03:44:07;;;;;;;6.73;6.13;;;;;;;;;;5032181;28;21117;-77
2023/05/07 03:46:37;;;;;;;7.10;6.43;;;;;;;;;;5019718;28;20443;-78
2023/05/07 03:49:05;;;;;;;5.63;5.23;;;;;;;;;;5018236;28;20451;-77
2023/05/07 03:51:35;;;;;;;7.13;6.43;;;;;;;;;;5017884;28;20459;-76
2023/05/07 03:54:03;;;;;;;7.53;6.83;;;;;;;;;;5016778;28;20462;-78
2023/05/07 03:56:36;;;;;;;6.03;5.53;;;;;;;;;;5016324;28;20443;-77
2023/05/07 03:59:09;;;;;;;7.13;6.53;;;;;;;;;;5016570;28;20486;-77
2023/05/07 04:01:42;;;;;;;6.30;5.70;;;;;;;;;;5016568;28;20459;-77
2023/05/07 04:04:13;;;;;;;7.20;6.50;;;;;;;;;;5016584;28;20450;-77
2023/05/07 04:06:41;;;;;;;6.80;6.30;;;;;;;;;;5016742;28;20505;-77
2023/05/07 04:09:08;;;;;;;7.47;6.83;;;;;;;;;;5016412;28;20452;-78
2023/05/07 04:11:39;;;;;;;7.30;6.70;;;;;;;;;;5016727;28;20447;-78
2023/05/07 04:14:12;;;;;;;7.20;6.60;;;;;;;;;;5016515;28;20456;-77
2023/05/07 04:16:45;;;;;;;7.87;6.90;;;;;;;;;;5016898;28;20471;-78
2023/05/07 04:19:21;;;;;;;8.53;6.00;;;;;;;;;;5016002;28;20779;-78
2023/05/07 04:21:49;;;;;;;7.10;6.50;;;;;;;;;;5016145;28;20502;-77
2023/05/07 04:24:20;;;;;;;6.83;6.33;;;;;;;;;;5016307;28;20522;-78
2023/05/07 04:26:50;;;;;;;6.83;6.23;;;;;;;;;;5016444;28;20452;-79
2023/05/07 04:29:23;;;;;;;8.73;7.17;;;;;;;;;;5015391;28;20858;-78
2023/05/07 04:31:55;;;;;;;7.43;6.83;;;;;;;;;;5015900;28;20458;-78
2023/05/07 04:34:25;;;;;;;7.30;6.50;;;;;;;;;;5014734;28;20455;-78
2023/05/07 04:36:53;;;;;;;7.70;6.23;;;;;;;;;;5015566;28;20458;-78
2023/05/07 04:39:22;;;;;;;7.80;7.20;;;;;;;;;;5015464;28;20483;-79
2023/05/07 04:41:58;;;;;;;9.73;7.90;;;;;;;;;;5014469;28;20448;-78
2023/05/07 04:44:34;;;;;;;7.80;7.20;;;;;;;;;;5014120;28;20525;-77
2023/05/07 04:47:05;;;;;;;7.90;7.10;;;;;;;;;;5014636;28;20463;-79
2023/05/07 04:49:36;;;;;;;7.23;6.73;;;;;;;;;;5013701;28;20478;-78
2023/05/07 04:52:04;;;;;;;7.53;6.93;;;;;;;;;;5014777;28;20459;-79
2023/05/07 04:54:35;;;;;;;7.07;6.57;;;;;;;;;;5014546;28;20443;-78
2023/05/07 04:57:08;;;;;;;7.67;7.07;;;;;;;;;;5014776;28;20459;-76
2023/05/07 04:59:40;;;;;;;7.60;7.00;;;;;;;;;;5014025;28;20479;-77
2023/05/07 05:02:13;;;;;;;8.90;8.13;;;;;;;;;;5013725;28;20579;-76
2023/05/07 05:04:40;;;;;;;8.20;7.40;;;;;;;;;;5014384;28;20457;-76
2023/05/07 05:07:11;;;;;;;8.00;7.30;;;;;;;;;;5015498;28;20490;-77
2023/05/07 05:09:41;;;;;;;7.23;6.63;;;;;;;;;;5015154;28;20487;-77
2023/05/07 05:12:20;;;;;;;7.40;6.80;;;;;;;;;;5033901;28;20497;-76
2023/05/07 05:14:56;;;;;;;8.27;7.47;;;;;;;;;;5038421;28;20432;-77
2023/05/07 05:17:36;;;;;;;7.97;6.80;;;;;;;;;;5038205;28;20459;-75
2023/05/07 05:20:05;;;;;;;8.23;7.50;;;;;;;;;;5037562;28;20460;-77
2023/05/07 05:22:37;;;;;;;8.43;7.63;;;;;;;;;;5033261;28;20467;-77
2023/05/07 05:25:13;;;;;;;8.37;7.73;;;;;;;;;;5024948;28;20463;-78
2023/05/07 05:27:45;;;;;;;8.47;7.50;;;;;;;;;;5019676;28;20462;-79
2023/05/07 05:30:23;;;;;;;8.10;7.30;;;;;;;;;;5022115;28;20467;-77
2023/05/07 05:32:52;;;;;;;8.00;7.40;;;;;;;;;;5025729;28;20489;-78
2023/05/07 05:35:29;;;;;;;8.77;8.00;;;;;;;;;;5024285;28;20455;-77
2023/05/07 05:38:02;;;;;;;9.33;8.50;;;;;;;;;;5024616;28;20510;-77
2023/05/07 05:40:33;;;;;;;9.93;8.20;;;;;;;;;;5021159;28;20475;-78
2023/05/07 05:43:04;;;;;;;10.20;7.60;;;;;;;;;;5024869;28;20531;-77
2023/05/07 05:45:33;;;;;;;8.93;8.13;;;;;;;;;;5022732;28;20451;-77
2023/05/07 05:48:14;;;;;;;7.73;6.87;;;;;;;;;;5021841;28;20467;-77
2023/05/07 05:50:49;;;;;;;8.20;7.50;;;;;;;;;;5023948;28;20501;-77
2023/05/07 05:53:18;;;;;;;9.00;8.20;;;;;;;;;;5023686;28;20535;-77
2023/05/07 05:55:55;;;;;;;8.07;7.40;;;;;;;;;;5022133;28;20526;-76
2023/05/07 05:58:26;;;;;;;8.63;7.93;;;;;;;;;;5020207;28;20525;-76
2023/05/07 06:00:59;;;;;;;9.00;8.20;;;;;;;;;;5020750;28;21035;-76
2023/05/07 06:03:33;;;;;;;8.50;7.83;;;;;;;;;;5021695;28;20440;-79
2023/05/07 06:06:01;;;;;;;9.40;8.50;;;;;;;;;;5020838;28;20451;-78
2023/05/07 06:08:32;;;;;;;8.20;7.47;;;;;;;;;;5019780;28;20546;-78
2023/05/07 06:11:06;;;;;;;8.50;7.83;;;;;;;;;;5018804;28;20458;-77
2023/05/07 06:13:34;;;;;;;10.13;9.13;;;;;;;;;;5015683;28;20446;-78
2023/05/07 06:16:07;;;;;;;9.43;8.73;;;;;;;;;;5016378;28;20459;-78
2023/05/07 06:18:45;;;;;;;16.60;9.20;;;;;;;;;;5015350;28;20502;-76
2023/05/07 06:21:21;;;;;;;8.73;8.03;;;;;;;;;;5017935;28;20505;-78
2023/05/07 06:23:52;;;;;;;8.63;7.97;;;;;;;;;;5017239;28;20513;-77
2023/05/07 06:26:25;;;;;;;9.07;8.17;;;;;;;;;;5018964;28;20477;-77
2023/05/07 06:28:54;;;;;;;8.70;8.00;;;;;;;;;;5019941;28;20483;-77
2023/05/07 06:31:29;;;;;;;8.27;7.57;;;;;;;;;;5020618;28;20444;-76
2023/05/07 06:36:38;;;;;;;7.70;7.10;;;;;;;;;;5018686;28;20473;-77
2023/05/07 06:39:21;;;;;;;8.40;7.70;;;;;;;;;;5017325;28;20530;-78
2023/05/07 06:41:53;;;;;;;8.50;7.60;;;;;;;;;;5015514;28;20542;-76
2023/05/07 06:44:32;;;;;;;10.83;8.50;;;;;;;;;;5014143;28;21047;-78
2023/05/07 06:47:11;;;;;;;8.33;7.60;;;;;;;;;;5014364;28;20457;-77
2023/05/07 06:49:39;;;;;;;8.47;7.60;;;;;;;;;;5015842;28;20541;-78
2023/05/07 06:52:10;;;;;;;8.90;8.10;;;;;;;;;;5017440;28;20451;-77
2023/05/07 06:54:47;;;;;;;9.07;8.10;;;;;;;;;;5022596;28;20558;-77
2023/05/07 06:57:15;;;;;;;7.47;6.87;;;;;;;;;;5025443;28;20523;-77
2023/05/07 06:59:42;;;;;;;7.37;6.77;;;;;;;;;;5027415;28;20483;-77
2023/05/07 07:02:20;;;;;;;7.20;6.60;;;;;;;;;;5028235;28;20454;-77
2023/05/07 07:04:50;;;;;;;7.33;6.73;;;;;;;;;;5029282;28;20944;-78
2023/05/07 07:07:23;;;;;;;7.80;7.10;;;;;;;;;;5025654;28;20455;-76
2023/05/07 07:09:55;;;;;;;7.70;7.10;;;;;;;;;;5025013;28;20457;-77
2023/05/07 07:12:35;;;;;;;7.50;6.90;;;;;;;;;;5025755;28;20490;-77
2023/05/07 07:18:15;;;;;;;8.00;7.40;;;;;;;;;;5023707;28;20420;-78
2023/05/07 07:20:48;;;;;;;7.90;7.20;;;;;;;;;;5002845;28;20565;-78
2023/05/07 07:23:18;;;;;;;7.57;6.90;;;;;;;;;;5023333;28;20478;-77
2023/05/07 07:25:52;;;;;;;7.20;6.27;;;;;;;;;;5021571;28;20467;-77
2023/05/07 07:28:30;;;;;;;7.30;6.70;;;;;;;;;;5023018;28;20463;-79
2023/05/07 07:31:00;;;;;;;8.50;7.80;;;;;;;;;;5025977;28;20478;-77
2023/05/07 07:33:40;;;;;;;7.73;7.03;;;;;;;;;;5028640;28;20447;-78
2023/05/07 07:36:15;;;;;;;7.90;7.20;;;;;;;;;;5028950;28;20447;-78
2023/05/07 07:38:55;;;;;;;8.50;6.80;;;;;;;;;;5028425;28;20563;-76
2023/05/07 07:41:30;;;;;;;8.00;7.40;;;;;;;;;;5016845;28;20497;-78
2023/05/07 07:44:04;;;;;;;9.23;8.27;;;;;;;;;;5015940;28;21042;-78
2023/05/07 07:46:36;;;;;;;8.23;7.63;;;;;;;;;;5015755;28;20567;-77
2023/05/07 07:49:08;;;;;;;8.20;7.40;;;;;;;;;;5015713;28;20478;-77
2023/05/07 07:51:45;;;;;;;8.93;8.30;;;;;;;;;;5016241;28;20497;-77
2023/05/07 07:54:34;;;;;;;6.77;6.27;;;;;;;;;;5016268;28;20458;-78
2023/05/07 07:57:10;;;;;;;6.23;5.60;;;;;;;;;;5017083;28;20977;-78
2023/05/07 07:59:43;;;;;;;6.47;5.90;;;;;;;;;;5016449;28;20478;-78
2023/05/07 08:02:14;;;;;;;5.00;4.60;;;;;;;;;;5015381;28;20459;-78
2023/05/07 08:04:43;;;;;;;5.73;5.33;;;;;;;;;;5016085;28;20546;-77
2023/05/07 08:07:18;;;;;;;5.57;5.20;;;;;;;;;;5017339;28;20455;-78
2023/05/07 08:09:47;;;;;;;5.33;4.90;;;;;;;;;;5014409;28;20498;-76
2023/05/07 08:12:18;;;;;;;5.30;4.80;;;;;;;;;;5014253;28;20536;-77
2023/05/07 08:14:49;;;;;;;4.30;4.00;;;;;;;;;;5014806;28;20451;-78
2023/05/07 08:17:17;;;;;;;4.87;4.57;;;;;;;;;;5014689;28;20455;-78
2023/05/07 08:19:51;;;;;;;5.27;4.70;;;;;;;;;;5014582;28;20960;-78
2023/05/07 08:22:20;;;;;;;5.50;4.10;;;;;;;;;;5014254;28;20467;-77
2023/05/07 08:24:49;;;;;;;5.03;4.63;;;;;;;;;;5014112;28;20834;-77
2023/05/07 08:27:22;;;;;;;4.40;4.10;;;;;;;;;;5014361;28;20468;-78
2023/05/07 08:29:54;;;;;;;4.40;4.10;;;;;;;;;;5014396;28;20545;-78
2023/05/07 08:32:24;;;;;;;4.77;4.37;;;;;;;;;;5014720;28;20458;-78
2023/05/07 08:34:55;;;;;;;4.00;3.70;;;;;;;;;;5014478;28;20518;-77
2023/05/07 08:37:25;;;;;;;3.60;3.10;;;;;;;;;;5015774;28;20455;-78
2023/05/07 08:39:56;;;;;;;4.30;4.00;;;;;;;;;;5015003;28;20482;-80
2023/05/07 08:42:27;;;;;;;3.93;3.63;;;;;;;;;;5014190;28;20476;-80
2023/05/07 08:44:59;;;;;;;4.13;3.83;;;;;;;;;;5014176;28;20461;-76
2023/05/07 08:47:32;;;;;;;4.37;4.03;;;;;;;;;;5013751;28;20459;-79
2023/05/07 08:50:09;;;;;;;5.43;4.80;;;;;;;;;;5014394;28;20843;-79
2023/05/07 08:52:39;;;;;;;5.53;5.03;;;;;;;;;;5015166;28;20544;-77
2023/05/07 08:55:08;;;;;;;8.27;7.47;;;;;;;;;;5015546;28;20443;-78
2023/05/07 08:57:40;;;;;;;8.63;7.93;;;;;;;;;;5014330;28;20458;-77
2023/05/07 09:00:09;;;;;;;7.20;6.50;;;;;;;;;;5014524;28;20478;-79
2023/05/07 09:02:42;;;;;;;4.40;4.00;;;;;;;;;;5014587;28;20889;-79
2023/05/07 09:05:15;;;;;;;4.60;4.23;;;;;;;;;;5017307;28;20494;-78
2023/05/07 09:07:50;;;;;;;3.63;3.40;;;;;;;;;;5016176;28;20455;-78
2023/05/07 09:10:37;;;;;;;3.50;3.30;;;;;;;;;;5016034;28;20934;-78
2023/05/07 09:13:10;;;;;;;3.63;3.30;;;;;;;;;;5016027;28;20530;-79
2023/05/07 09:15:47;;;;;;;3.37;3.17;;;;;;;;;;5014475;28;20521;-77
2023/05/07 09:18:17;;;;;;;3.60;3.30;;;;;;;;;;5015050;28;20525;-78
2023/05/07 09:20:51;;;;;;;4.03;3.63;;;;;;;;;;5015474;28;20479;-78
2023/05/07 09:23:22;;;;;;;4.40;3.83;;;;;;;;;;5015619;28;20462;-79
2023/05/07 09:25:55;;;;;;;3.50;2.43;;;;;;;;;;5015061;28;20439;-79
2023/05/07 09:28:29;;;;;;;2.67;2.57;;;;;;;;;;5015184;28;20514;-79
2023/05/07 09:30:58;;;;;;;3.10;2.90;;;;;;;;;;5017057;28;20531;-77
2023/05/07 09:33:30;;;;;;;3.40;3.10;;;;;;;;;;5017705;28;20814;-78
2023/05/07 09:36:01;;;;;;;3.00;2.80;;;;;;;;;;5016338;28;20452;-78
2023/05/07 09:38:35;;;;;;;4.67;2.70;;;;;;;;;;5016568;28;20534;-79
2023/05/07 09:41:14;;;;;;;3.70;2.40;;;;;;;;;;5015500;28;20585;-81
2023/05/07 09:43:43;;;;;;;3.73;3.43;;;;;;;;;;5014647;28;20459;-78
2023/05/07 09:46:16;;;;;;;3.60;3.30;;;;;;;;;;5015483;28;20447;-79
2023/05/07 09:48:44;;;;;;;3.00;2.63;;;;;;;;;;5016088;28;20487;-82
2023/05/07 09:51:20;;;;;;;3.03;2.83;;;;;;;;;;5021091;28;20462;-79
2023/05/07 09:53:59;;;;;;;2.87;2.67;;;;;;;;;;5019018;28;20710;-78
2023/05/07 09:56:27;;;;;;;2.53;2.37;;;;;;;;;;5017649;28;20448;-78
2023/05/07 09:58:58;;;;;;;2.57;2.43;;;;;;;;;;5017472;28;20486;-77
2023/05/07 10:01:33;;;;;;;2.93;2.50;;;;;;;;;;5016546;28;20481;-79
2023/05/07 10:04:11;;;;;;;2.80;2.60;;;;;;;;;;5016279;28;20455;-77
2023/05/07 10:06:47;;;;;;;3.50;2.40;;;;;;;;;;5016930;28;20444;-79
2023/05/07 10:09:18;;;;;;;2.60;2.50;;;;;;;;;;5015312;28;20470;-78
2023/05/07 10:11:55;;;;;;;2.67;2.50;;;;;;;;;;5016065;28;20995;-80
2023/05/07 10:14:25;;;;;;;2.97;2.70;;;;;;;;;;5016183;28;20538;-78
2023/05/07 10:17:04;;;;;;;2.60;2.50;;;;;;;;;;5016451;28;20447;-78
2023/05/07 10:19:33;;;;;;;2.60;2.50;;;;;;;;;;5015791;28;20521;-77
2023/05/07 10:22:05;;;;;;;2.60;2.40;;;;;;;;;;5014551;28;20518;-78
2023/05/07 10:24:36;;;;;;;2.40;2.20;;;;;;;;;;5013053;28;20538;-80
2023/05/07 10:27:07;;;;;;;3.03;2.83;;;;;;;;;;5012031;28;20481;-77
2023/05/07 10:29:39;;;;;;;2.87;2.53;;;;;;;;;;5011906;28;20489;-78
2023/05/07 10:32:16;;;;;;;2.50;2.30;;;;;;;;;;5012828;28;20534;-77
2023/05/07 10:34:46;;;;;;;2.80;2.57;;;;;;;;;;5015157;28;20839;-78
2023/05/07 10:37:20;;;;;;;2.60;2.30;;;;;;;;;;5015066;28;20470;-78
2023/05/07 10:39:49;;;;;;;4.53;2.47;;;;;;;;;;5015985;28;20471;-78
2023/05/07 10:42:24;;;;;;;2.17;2.07;;;;;;;;;;5017803;28;20557;-78
2023/05/07 10:44:58;;;;;;;2.40;2.30;;;;;;;;;;5016406;28;20483;-80
2023/05/07 10:47:31;;;;;;;2.47;2.17;;;;;;;;;;5015646;28;20489;-77
2023/05/07 10:50:22;;;;;;;5.23;2.30;;;;;;;;;;5016131;28;20463;-78
2023/05/07 10:53:04;;;;;;;5.10;3.00;;;;;;;;;;5017095;28;20490;-77
2023/05/07 10:55:35;;;;;;;2.60;2.50;;;;;;;;;;5015447;28;20535;-77
2023/05/07 10:58:22;;;;;;;2.73;2.60;;;;;;;;;;5014334;28;21040;-77
2023/05/07 11:00:51;;;;;;;4.07;2.80;;;;;;;;;;5014188;28;20479;-75
2023/05/07 11:03:22;;;;;;;2.70;2.50;;;;;;;;;;5015189;28;20478;-78
2023/05/07 11:06:10;;;;;;;2.10;2.00;;;;;;;;;;5016118;28;20474;-77
2023/05/07 11:08:56;;;;;;;2.67;2.07;;;;;;;;;;5012950;28;20484;-76
2023/05/07 11:11:43;;;;;;;2.57;2.37;;;;;;;;;;5012779;28;20435;-77
2023/05/07 11:14:17;;;;;;;3.37;1.97;;;;;;;;;;5013438;28;20978;-77
2023/05/07 11:16:49;;;;;;;2.43;2.30;;;;;;;;;;5015408;28;20521;-76
2023/05/07 11:19:17;;;;;;;2.23;2.13;;;;;;;;;;5015849;28;20918;-78
2023/05/07 11:21:46;;;;;;;2.57;2.27;;;;;;;;;;5014934;28;20487;-79
2023/05/07 11:24:21;;;;;;;3.27;2.50;;;;;;;;;;5015737;28;20482;-78
2023/05/07 11:26:52;;;;;;;2.50;2.40;;;;;;;;;;5015281;28;20459;-77
2023/05/07 11:29:30;;;;;;;3.27;2.50;;;;;;;;;;5018096;28;20479;-79
2023/05/07 11:32:00;;;;;;;3.07;2.27;;;;;;;;;;5017939;28;20505;-77
2023/05/07 11:34:35;;;;;;;4.40;2.30;;;;;;;;;;5015908;28;20451;-77
2023/05/07 11:37:07;;;;;;;3.60;2.60;;;;;;;;;;5017253;28;20454;-76
2023/05/07 11:39:40;;;;;;;3.13;2.93;;;;;;;;;;5020396;28;20609;-77
2023/05/07 11:42:28;;;;;;;2.90;2.70;;;;;;;;;;5020181;28;20484;-78
2023/05/07 11:45:16;;;;;;;3.60;2.90;;;;;;;;;;5019116;28;20539;-77
2023/05/07 11:47:48;;;;;;;2.10;2.00;;;;;;;;;;5018863;28;20475;-78
2023/05/07 11:50:25;;;;;;;3.80;2.70;;;;;;;;;;5018195;28;20835;-78
2023/05/07 11:52:57;;;;;;;2.70;2.50;;;;;;;;;;5018400;28;20450;-78
2023/05/07 11:55:30;;;;;;;3.40;2.93;;;;;;;;;;5016457;28;20458;-79
2023/05/07 11:58:02;;;;;;;3.50;3.07;;;;;;;;;;5016331;28;20476;-77
2023/05/07 12:00:36;;;;;;;3.20;3.00;;;;;;;;;;5016803;28;20582;-78
2023/05/07 12:03:07;;;;;;;3.20;2.97;;;;;;;;;;5017315;28;20475;-77
2023/05/07 12:05:37;;;;;;;3.50;3.30;;;;;;;;;;5017950;28;20485;-79
2023/05/07 12:08:06;;;;;;;3.60;3.00;;;;;;;;;;5024537;28;20468;-78
2023/05/07 12:10:37;;;;;;;7.60;3.77;;;;;;;;;;5035936;28;20550;-79
2023/05/07 12:13:17;;;;;;;3.87;3.57;;;;;;;;;;5036673;28;20426;-80
2023/05/07 12:15:53;;;;;;;4.53;3.90;;;;;;;;;;5037110;28;20452;-81
2023/05/07 12:18:21;;;;;;;4.30;4.00;;;;;;;;;;5033249;28;20521;-78
2023/05/07 12:20:52;;;;;;;4.40;4.10;;;;;;;;;;5037536;28;20471;-77
2023/05/07 12:23:21;;;;;;;5.23;4.07;;;;;;;;;;5039596;28;20423;-80
2023/05/07 12:25:51;;;;;;;5.20;4.70;;;;;;;;;;5040305;28;20470;-79
2023/05/07 12:28:20;;;;;;;5.30;4.10;;;;;;;;;;5039884;28;20475;-82
2023/05/07 12:30:53;;;;;;;4.40;3.90;;;;;;;;;;5038459;28;20431;-78
2023/05/07 12:33:28;;;;;;;4.47;4.07;;;;;;;;;;5037745;28;20459;-81
2023/05/07 12:35:57;;;;;;;4.70;4.20;;;;;;;;;;5033103;28;21084;-79
2023/05/07 12:38:27;;;;;;;5.83;4.43;;;;;;;;;;5019152;28;20478;-78
2023/05/07 12:41:00;;;;;;;5.43;3.80;;;;;;;;;;5018674;28;20471;-77
2023/05/07 12:43:29;;;;;;;4.87;4.23;;;;;;;;;;5017972;28;20890;-77
2023/05/07 12:45:59;;;;;;;7.37;4.10;;;;;;;;;;5017173;28;20466;-79
2023/05/07 12:48:28;;;;;;;4.67;4.27;;;;;;;;;;5016211;28;20479;-77
2023/05/07 12:50:56;;;;;;;6.63;3.50;;;;;;;;;;5016808;28;20538;-80
2023/05/07 12:53:27;;;;;;;3.73;3.37;;;;;;;;;;5017374;28;20533;-77
2023/05/07 12:56:00;;;;;;;3.40;3.07;;;;;;;;;;5016684;28;20452;-76
2023/05/07 12:58:28;;;;;;;4.57;2.03;;;;;;;;;;5017118;28;20482;-77
2023/05/07 13:00:58;;;;;;;3.23;2.30;;;;;;;;;;5017617;28;20490;-76
2023/05/07 13:03:29;;;;;;;2.70;1.60;;;;;;;;;;5018618;28;21007;-76
2023/05/07 13:05:59;;;;;;;1.50;1.10;;;;;;;;;;5019454;28;20451;-77
2023/05/07 13:08:30;;;;;;;2.50;1.30;;;;;;;;;;5020272;28;20871;-77
2023/05/07 13:10:58;;;;;;;1.80;1.70;;;;;;;;;;5018646;28;20482;-76
2023/05/07 13:13:30;;;;;;;1.77;1.50;;;;;;;;;;5020972;28;20452;-76
2023/05/07 13:16:00;;;;;;;2.43;2.07;;;;;;;;;;5022142;28;20459;-77
2023/05/07 13:18:31;;;;;;;4.53;3.90;;;;;;;;;;5021723;28;20475;-76
2023/05/07 13:21:00;;;;;;;3.83;2.70;;;;;;;;;;5022459;28;20965;-77
2023/05/07 13:23:32;;;;;;;3.63;3.33;;;;;;;;;;5023121;28;20510;-79
2023/05/07 13:25:59;;;;;;;3.20;2.37;;;;;;;;;;5024838;28;20448;-78
2023/05/07 13:28:27;;;;;;;3.00;2.50;;;;;;;;;;5025049;28;20467;-78
2023/05/07 13:30:54;;;;;;;6.40;2.77;;;;;;;;;;5026763;28;20516;-76
2023/05/07 13:33:23;;;;;;;4.17;3.10;;;;;;;;;;5026409;28;20511;-76
2023/05/07 13:35:54;;;;;;;3.27;2.53;;;;;;;;;;5025501;28;20517;-77
2023/05/07 13:38:22;;;;;;;2.90;2.50;;;;;;;;;;5023844;28;20572;-76
2023/05/07 13:40:50;;;;;;;2.50;2.30;;;;;;;;;;5025375;28;20942;-78
2023/05/07 13:43:18;;;;;;;3.63;2.87;;;;;;;;;;5025498;28;20482;-78
2023/05/07 13:45:49;;;;;;;2.60;2.40;;;;;;;;;;5025630;28;20544;-78
2023/05/07 13:48:17;;;;;;;3.67;2.80;;;;;;;;;;5024142;28;20475;-77
2023/05/07 13:50:47;;;;;;;3.17;2.50;;;;;;;;;;5023795;28;20534;-77
2023/05/07 13:53:18;;;;;;;2.83;2.60;;;;;;;;;;5024299;28;20429;-80
2023/05/07 13:55:46;;;;;;;7.53;2.57;;;;;;;;;;5026388;28;20439;-79
2023/05/07 13:58:15;;;;;;;3.57;3.30;;;;;;;;;;5024027;28;20533;-77
2023/05/07 14:00:44;;;;;;;3.33;2.80;;;;;;;;;;5024790;28;20476;-78
2023/05/07 14:03:11;;;;;;;6.30;3.13;;;;;;;;;;5023001;28;21048;-77
2023/05/07 14:05:40;;;;;;;4.90;3.10;;;;;;;;;;5024450;28;20478;-77
2023/05/07 14:08:13;;;;;;;3.00;2.70;;;;;;;;;;5024260;28;20482;-77
2023/05/07 14:10:44;;;;;;;3.10;2.53;;;;;;;;;;5026615;28;20511;-77
2023/05/07 14:13:12;;;;;;;2.00;1.90;;;;;;;;;;5024597;28;20534;-78
2023/05/07 14:15:46;;;;;;;2.40;2.17;;;;;;;;;;5025834;28;20462;-77
2023/05/07 14:18:20;;;;;;;2.60;2.20;;;;;;;;;;5029291;28;20471;-80
2023/05/07 14:20:50;;;;;;;6.93;2.93;;;;;;;;;;5027713;28;20443;-80
2023/05/07 14:23:19;;;;;;;2.77;2.57;;;;;;;;;;5025767;28;20992;-76
2023/05/07 14:25:51;;;;;;;4.97;2.50;;;;;;;;;;5024478;28;20474;-80
2023/05/07 14:28:25;;;;;;;2.87;2.67;;;;;;;;;;5026773;28;20747;-78
2023/05/07 14:30:53;;;;;;;3.03;2.50;;;;;;;;;;5025642;28;20451;-80
2023/05/07 14:33:24;;;;;;;3.30;3.10;;;;;;;;;;5024221;28;20444;-78
2023/05/07 14:35:52;;;;;;;3.63;3.33;;;;;;;;;;5027172;28;20482;-77
2023/05/07 14:38:20;;;;;;;4.17;3.73;;;;;;;;;;5025819;28;20471;-77
2023/05/07 14:40:50;;;;;;;4.00;3.70;;;;;;;;;;5026977;28;20447;-77
2023/05/07 14:43:18;;;;;;;3.97;3.67;;;;;;;;;;5026513;28;20546;-79
2023/05/07 14:45:49;;;;;;;3.80;3.50;;;;;;;;;;5026256;28;20458;-78
2023/05/07 14:48:25;;;;;;;2.83;2.70;;;;;;;;;;5026425;28;20567;-80
2023/05/07 14:50:59;;;;;;;3.00;2.70;;;;;;;;;;5021853;28;20455;-77
2023/05/07 14:53:28;;;;;;;3.97;3.47;;;;;;;;;;5020175;28;20451;-79
2023/05/07 14:55:59;;;;;;;3.40;3.10;;;;;;;;;;5025327;28;20459;-78
2023/05/07 14:58:30;;;;;;;3.23;2.60;;;;;;;;;;5026363;28;20468;-78
2023/05/07 15:01:00;;;;;;;3.00;2.80;;;;;;;;;;5024791;28;20462;-77
2023/05/07 15:03:38;;;;;;;3.60;3.30;;;;;;;;;;5017793;28;20671;-78
2023/05/07 15:06:13;;;;;;;4.03;3.73;;;;;;;;;;5020346;28;20526;-78
2023/05/07 15:08:42;;;;;;;4.50;3.93;;;;;;;;;;5020932;28;20502;-78
2023/05/07 15:11:22;;;;;;;3.87;3.57;;;;;;;;;;5021001;28;20983;-80
2023/05/07 15:13:51;;;;;;;6.93;4.70;;;;;;;;;;5026217;28;20960;-79
2023/05/07 15:16:20;;;;;;;5.57;3.73;;;;;;;;;;5027366;28;20443;-77
2023/05/07 15:18:54;;;;;;;6.60;3.67;;;;;;;;;;5027223;28;20471;-80
2023/05/07 15:21:26;;;;;;;4.23;4.00;;;;;;;;;;5026993;28;20509;-78
2023/05/07 15:23:55;;;;;;;3.63;3.40;;;;;;;;;;5025689;28;20475;-80
2023/05/07 15:26:31;;;;;;;3.87;3.50;;;;;;;;;;5023949;28;20566;-79
2023/05/07 15:29:09;;;;;;;6.33;3.60;;;;;;;;;;5021867;28;20502;-78
2023/05/07 15:31:42;;;;;;;3.67;3.37;;;;;;;;;;5021140;28;20462;-79
2023/05/07 15:34:10;;;;;;;4.20;3.90;;;;;;;;;;5020343;28;20447;-79
2023/05/07 15:36:43;;;;;;;3.90;3.63;;;;;;;;;;5021817;28;20443;-77
2023/05/07 15:39:14;;;;;;;4.73;4.30;;;;;;;;;;5021292;28;20506;-78
2023/05/07 15:41:52;;;;;;;4.13;3.83;;;;;;;;;;5021750;28;20465;-77
2023/05/07 15:44:27;;;;;;;3.70;3.50;;;;;;;;;;5021403;28;20813;-79
2023/05/07 15:46:58;;;;;;;3.63;3.43;;;;;;;;;;5022780;28;20446;-77
2023/05/07 15:49:28;;;;;;;4.43;4.03;;;;;;;;;;5020956;28;20475;-80